Time;durP1;ratioP1;P1;durP2;ratioP2;P2;SDS_P1;SDS_P2;PMS_P1;PMS_P2;Temp;Humidity;BMP_temperature;BMP_pressure;BME280_temperature;BME280_humidity;BME280_pressure;Samples;Min_cycle;Max_cycle;Signal;HPM_P1;HPM_P2
2022/01/20 00:00:43;;;;;;;17.67;3.13;;;;;;;2.61;100.00;102300.63;5113323;28;20051;-48
2022/01/20 00:03:15;;;;;;;19.60;2.60;;;;;;;2.56;100.00;102300.63;5113289;28;20502;-48
2022/01/20 00:06:24;;;;;;;20.50;3.08;;;;;;;2.53;100.00;102309.31;5113442;28;20039;-47
2022/01/20 00:08:54;;;;;;;19.95;3.58;;;;;;;2.45;100.00;102308.50;5113183;28;20059;-58
2022/01/20 00:28:13;;;;;;;20.75;3.30;;;;;;;2.25;100.00;102324.25;5103294;28;20089;-49
2022/01/20 00:30:47;;;;;;;15.93;2.97;;;;;;;2.27;100.00;102329.44;5112444;28;20052;-47
2022/01/20 00:33:21;;;;;;;24.30;4.60;;;;;;;2.29;100.00;102325.06;5112906;28;20406;-49
2022/01/20 00:38:36;;;;;;;21.20;3.38;;;;;;;2.27;100.00;102324.25;5112475;28;20051;-48
2022/01/20 00:41:04;;;;;;;24.60;2.95;;;;;;;2.30;100.00;102327.66;5112717;28;20043;-45
2022/01/20 00:43:34;;;;;;;23.42;3.38;;;;;;;2.41;100.00;102327.59;5112793;28;20505;-45
2022/01/20 00:46:02;;;;;;;18.13;3.22;;;;;;;2.44;100.00;102318.91;5112577;28;20410;-57
2022/01/20 00:48:30;;;;;;;11.45;2.53;;;;;;;2.47;100.00;102318.91;5112193;28;20059;-47
2022/01/20 00:50:58;;;;;;;18.90;3.28;;;;;;;2.51;100.00;102313.66;5112734;28;20389;-46
2022/01/20 00:53:26;;;;;;;18.75;3.80;;;;;;;2.51;100.00;102310.22;5112472;28;20040;-57
2022/01/20 00:55:55;;;;;;;16.05;2.40;;;;;;;2.53;100.00;102306.72;5112350;28;20067;-56
2022/01/20 00:58:24;;;;;;;22.75;3.63;;;;;;;2.51;100.00;102311.06;5112280;28;20054;-47
2022/01/20 01:00:53;;;;;;;15.90;2.50;;;;;;;2.49;100.00;102312.81;5112632;28;20051;-46
2022/01/20 01:03:22;;;;;;;14.63;2.67;;;;;;;2.49;100.00;102319.75;5115624;28;20039;-49
2022/01/20 01:06:02;;;;;;;16.23;2.78;;;;;;;2.51;100.00;102321.47;5116804;28;20048;-50
2022/01/20 01:08:31;;;;;;;18.05;2.20;;;;;;;2.53;100.00;102319.69;5116576;28;20048;-46
2022/01/20 01:10:59;;;;;;;21.70;2.63;;;;;;;2.54;100.00;102321.44;5115911;28;20055;-57
2022/01/20 01:13:28;;;;;;;17.75;3.30;;;;;;;2.48;100.00;102326.69;5115858;28;20047;-57
2022/01/20 01:15:58;;;;;;;13.95;2.55;;;;;;;2.45;100.00;102329.28;5116419;28;20070;-45
2022/01/20 01:21:26;;;;;;;19.80;3.27;;;;;;;2.50;100.00;102324.91;5092982;27;20060;-57
2022/01/20 01:23:55;;;;;;;18.65;2.83;;;;;;;2.45;100.00;102326.69;5116532;28;20056;-58
2022/01/20 01:26:27;;;;;;;16.38;2.75;;;;;;;2.47;100.00;102331.91;5116062;28;20498;-57
2022/01/20 01:28:57;;;;;;;18.43;2.30;;;;;;;2.46;100.00;102331.00;5116340;28;20417;-57
2022/01/20 01:31:37;;;;;;;14.52;2.65;;;;;;;2.47;100.00;102324.94;5116262;28;20520;-50
2022/01/20 01:34:08;;;;;;;17.52;2.78;;;;;;;2.45;100.00;102325.84;5115846;28;20052;-45
2022/01/20 01:39:22;;;;;;;16.98;2.42;;;;;;;2.48;100.00;102339.66;5115868;28;20062;-48
2022/01/20 01:41:50;;;;;;;17.65;2.78;;;;;;;2.47;100.00;102330.16;5116077;28;20537;-47
2022/01/20 01:44:23;;;;;;;12.05;2.90;;;;;;;2.56;100.00;102337.00;5116137;27;20052;-49
2022/01/20 01:46:53;;;;;;;13.13;2.42;;;;;;;2.56;100.00;102333.56;5116409;28;20059;-47
2022/01/20 01:49:21;;;;;;;13.73;2.50;;;;;;;2.56;100.00;102333.56;5115379;28;20055;-47
2022/01/20 01:51:50;;;;;;;11.05;2.10;;;;;;;2.59;100.00;102334.41;5115941;28;20056;-58
2022/01/20 01:54:19;;;;;;;17.98;2.65;;;;;;;2.62;100.00;102336.97;5115863;27;20050;-58
2022/01/20 01:56:49;;;;;;;13.60;3.05;;;;;;;2.62;100.00;102339.56;5115664;27;20511;-57
2022/01/20 01:59:18;;;;;;;15.68;2.65;;;;;;;2.65;100.00;102349.06;5115631;28;20489;-57
2022/01/20 02:01:46;;;;;;;15.07;2.00;;;;;;;2.66;100.00;102335.22;5115606;28;20072;-58
2022/01/20 02:04:18;;;;;;;20.70;2.63;;;;;;;2.69;100.00;102332.59;5115454;28;20078;-49
2022/01/20 02:17:47;;;;;;;13.02;2.20;;;;;;;2.67;100.00;102342.09;5115339;28;20498;-48
2022/01/20 02:18:36;;;;;;;19.45;2.47;;;;;;;2.77;100.00;102346.38;5115039;28;20104;-49
2022/01/20 02:21:06;;;;;;;19.02;2.78;;;;;;;2.78;100.00;102363.69;5115228;28;20048;-47
2022/01/20 02:23:34;;;;;;;10.02;1.67;;;;;;;2.83;100.00;102356.69;5115131;28;20414;-48
2022/01/20 02:26:02;;;;;;;16.25;2.38;;;;;;;2.81;100.00;102353.25;5115071;28;20093;-48
2022/01/20 02:28:30;;;;;;;16.63;1.88;;;;;;;2.82;100.00;102352.41;5114989;28;20051;-45
2022/01/20 02:30:59;;;;;;;13.68;1.95;;;;;;;2.85;100.00;102346.28;5115026;28;20489;-57
2022/01/20 02:33:29;;;;;;;12.98;2.33;;;;;;;2.79;100.00;102347.19;5114650;28;20076;-47
2022/01/20 02:36:00;;;;;;;18.00;2.63;;;;;;;2.85;100.00;102336.75;5114971;28;20048;-47
2022/01/20 02:38:35;;;;;;;16.55;2.67;;;;;;;2.77;100.00;102324.69;5114598;28;20049;-54
2022/01/20 02:46:37;;;;;;;13.82;1.90;;;;;;;2.73;100.00;102308.28;5114839;28;20048;-45
2022/01/20 02:49:07;;;;;;;15.23;1.80;;;;;;;2.79;100.00;102313.41;5114365;28;20048;-48
2022/01/20 02:51:36;;;;;;;17.88;2.00;;;;;;;2.78;100.00;102318.63;5114632;28;20230;-47
2022/01/20 02:54:10;;;;;;;11.57;1.45;;;;;;;2.82;100.00;102331.59;5114591;28;20048;-57
2022/01/20 02:56:38;;;;;;;14.10;2.08;;;;;;;2.82;100.00;102329.00;5114663;28;20498;-47
2022/01/20 02:59:06;;;;;;;14.23;1.80;;;;;;;2.82;100.00;102321.22;5114454;28;20117;-47
2022/01/20 03:01:34;;;;;;;12.80;2.28;;;;;;;2.84;100.00;102319.44;5114452;28;20043;-47
2022/01/20 03:04:03;;;;;;;14.38;2.30;;;;;;;2.86;100.00;102324.63;5114566;28;20047;-49
2022/01/20 03:06:31;;;;;;;17.50;2.58;;;;;;;2.87;100.00;102319.41;5113926;28;20043;-48
2022/01/20 03:08:59;;;;;;;11.35;2.17;;;;;;;2.85;100.00;102310.78;5114021;28;20430;-56
2022/01/20 03:11:29;;;;;;;15.15;1.95;;;;;;;2.87;100.00;102314.22;5114043;28;20043;-57
2022/01/20 03:13:57;;;;;;;11.55;2.40;;;;;;;2.91;100.00;102309.00;5113671;28;20490;-57
2022/01/20 03:16:25;;;;;;;15.82;2.75;;;;;;;2.95;100.00;102308.94;5113644;28;20501;-57
2022/01/20 03:18:53;;;;;;;13.07;2.22;;;;;;;2.95;100.00;102319.34;5113410;28;20105;-58
2022/01/20 03:21:21;;;;;;;12.45;1.67;;;;;;;2.98;100.00;102323.66;5113652;28;20047;-57
2022/01/20 03:23:49;;;;;;;15.70;2.80;;;;;;;2.95;100.00;102321.09;5109846;28;20036;-57
2022/01/20 03:26:18;;;;;;;19.38;2.08;;;;;;;2.93;100.00;102323.72;5090226;28;20528;-48
2022/01/20 03:28:47;;;;;;;17.25;2.10;;;;;;;2.98;100.00;102310.66;5091784;28;20111;-57
2022/01/20 03:31:15;;;;;;;20.50;2.55;;;;;;;3.03;100.00;102316.69;5093393;28;20554;-48
2022/01/20 03:33:43;;;;;;;11.30;1.67;;;;;;;3.00;100.00;102320.16;5093329;28;20435;-46
2022/01/20 03:36:11;;;;;;;14.98;2.33;;;;;;;3.02;100.00;102320.16;5092022;28;20119;-51
2022/01/20 03:38:39;;;;;;;16.00;1.95;;;;;;;3.04;100.00;102331.38;5088667;28;20058;-49
2022/01/20 03:41:07;;;;;;;12.50;1.85;;;;;;;3.04;100.00;102336.56;5093124;28;20486;-47
2022/01/20 03:43:36;;;;;;;12.63;2.65;;;;;;;3.02;100.00;102339.19;5093165;28;20105;-47
2022/01/20 03:46:11;;;;;;;13.27;1.88;;;;;;;3.04;100.00;102344.38;5093335;28;20044;-51
2022/01/20 03:48:49;;;;;;;11.10;1.75;;;;;;;3.03;100.00;102345.28;5088015;28;20040;-47
2022/01/20 03:51:21;;;;;;;16.38;1.80;;;;;;;3.02;100.00;102349.59;5072630;28;20044;-44
2022/01/20 03:53:50;;;;;;;9.48;1.48;;;;;;;3.04;100.00;102350.44;5073019;28;20048;-47
2022/01/20 03:56:20;;;;;;;8.60;1.17;;;;;;;3.07;100.00;102353.88;5088219;28;20536;-47
2022/01/20 03:58:49;;;;;;;13.40;1.63;;;;;;;3.04;100.00;102347.84;5091424;28;20040;-48
2022/01/20 04:01:20;;;;;;;16.13;1.95;;;;;;;3.08;100.00;102347.81;5072584;28;20079;-50
2022/01/20 04:03:48;;;;;;;11.48;1.60;;;;;;;3.08;100.00;102347.81;5072180;28;20443;-45
2022/01/20 04:06:17;;;;;;;14.05;1.92;;;;;;;3.10;100.00;102348.69;5072498;28;20102;-48
2022/01/20 04:08:47;;;;;;;13.52;1.88;;;;;;;3.04;100.00;102350.44;5072021;28;20391;-49
2022/01/20 04:11:19;;;;;;;11.20;1.60;;;;;;;3.06;100.00;102347.84;5072306;28;20066;-47
2022/01/20 04:13:47;;;;;;;15.93;2.22;;;;;;;3.10;100.00;102341.72;5080541;28;20040;-48
2022/01/20 04:16:21;;;;;;;11.38;2.00;;;;;;;3.12;100.00;102360.78;5092851;28;20105;-46
2022/01/20 04:18:54;;;;;;;10.63;1.85;;;;;;;3.16;100.00;102366.81;5092512;28;20040;-46
2022/01/20 04:21:25;;;;;;;10.60;1.63;;;;;;;3.18;100.00;102375.47;5091542;28;20048;-47
2022/01/20 04:23:53;;;;;;;9.93;1.50;;;;;;;3.21;100.00;102381.47;5086040;28;20048;-47
2022/01/20 04:26:22;;;;;;;9.68;1.52;;;;;;;3.19;100.00;102392.75;5072462;28;20075;-48
2022/01/20 04:28:53;;;;;;;12.13;1.90;;;;;;;3.19;100.00;102400.56;5072255;28;20487;-46
2022/01/20 04:31:23;;;;;;;7.43;1.42;;;;;;;3.18;100.00;102386.72;5072192;28;20066;-45
2022/01/20 04:33:52;;;;;;;15.82;1.50;;;;;;;3.20;100.00;102405.78;5072855;28;20048;-46
2022/01/20 04:36:20;;;;;;;9.98;1.45;;;;;;;3.16;100.00;102396.28;5083438;28;20044;-49
2022/01/20 04:38:48;;;;;;;7.55;1.25;;;;;;;3.16;100.00;102392.81;5092187;28;20036;-46
2022/01/20 04:41:16;;;;;;;10.38;1.38;;;;;;;3.17;100.00;102394.53;5092235;28;20290;-58
2022/01/20 04:43:44;;;;;;;9.63;1.42;;;;;;;3.20;100.00;102387.56;5092059;28;20040;-59
2022/01/20 04:46:22;;;;;;;8.73;2.15;;;;;;;3.25;100.00;102405.72;5075801;28;20036;-59
2022/01/20 04:49:12;;;;;;;10.05;2.20;;;;;;;3.20;100.00;102413.56;5071840;28;20461;-48
2022/01/20 04:57:17;;;;;;;9.75;2.05;;;;;;;3.22;100.00;102423.97;5085311;28;20044;-50
2022/01/20 04:59:47;;;;;;;10.35;1.35;;;;;;;3.16;100.00;102414.47;5071634;28;20090;-57
2022/01/20 05:02:17;;;;;;;12.60;1.73;;;;;;;3.12;100.00;102418.00;5071965;28;20051;-52
2022/01/20 05:04:47;;;;;;;14.20;1.58;;;;;;;3.15;100.00;102428.34;5071757;28;20072;-50
2022/01/20 05:07:20;;;;;;;17.25;2.22;;;;;;;3.12;100.00;102425.78;5082605;28;20490;-46
2022/01/20 05:09:49;;;;;;;8.02;1.30;;;;;;;3.11;100.00;102429.25;5091512;28;20052;-47
2022/01/20 05:12:24;;;;;;;11.70;1.63;;;;;;;3.05;100.00;102429.28;5088041;28;20045;-58
2022/01/20 05:14:52;;;;;;;13.02;2.00;;;;;;;3.12;100.00;102437.91;5071893;28;20560;-58
2022/01/20 05:17:20;;;;;;;16.45;1.95;;;;;;;3.15;100.00;102430.06;5072250;28;20110;-58
2022/01/20 05:19:50;;;;;;;15.80;1.88;;;;;;;3.16;100.00;102437.00;5086816;28;20055;-58
2022/01/20 05:22:18;;;;;;;13.90;1.63;;;;;;;3.15;100.00;102430.06;5086057;28;20358;-58
2022/01/20 05:24:46;;;;;;;11.45;1.70;;;;;;;3.11;100.00;102439.66;5091842;28;20165;-50
2022/01/20 05:27:14;;;;;;;11.75;2.45;;;;;;;3.11;100.00;102439.66;5091636;28;20674;-49
2022/01/20 05:29:43;;;;;;;13.93;1.50;;;;;;;3.14;100.00;102444.81;5083755;28;20448;-47
2022/01/20 05:32:11;;;;;;;16.15;2.40;;;;;;;3.15;100.00;102454.34;5088729;28;20106;-58
2022/01/20 05:34:39;;;;;;;12.45;2.28;;;;;;;3.18;100.00;102448.28;5072675;28;20049;-59
2022/01/20 05:37:08;;;;;;;13.13;2.05;;;;;;;3.15;100.00;102461.28;5071175;28;20036;-58
2022/01/20 05:39:36;;;;;;;10.98;1.50;;;;;;;3.06;100.00;102466.56;5072061;28;20505;-57
2022/01/20 05:42:05;;;;;;;10.57;1.75;;;;;;;3.05;100.00;102468.28;5071604;28;20052;-49
2022/01/20 05:44:33;;;;;;;9.07;1.70;;;;;;;3.06;100.00;102476.97;5071186;28;20067;-56
2022/01/20 05:47:06;;;;;;;12.98;1.90;;;;;;;3.11;100.00;102476.06;5071482;28;20522;-46
2022/01/20 05:49:34;;;;;;;10.23;1.58;;;;;;;3.09;100.00;102480.38;5072679;28;20045;-48
2022/01/20 05:52:03;;;;;;;13.02;1.60;;;;;;;3.07;100.00;102478.66;5075867;28;20056;-49
2022/01/20 05:54:32;;;;;;;9.30;1.33;;;;;;;3.08;100.00;102488.19;5074497;28;20072;-56
2022/01/20 05:57:01;;;;;;;8.93;2.00;;;;;;;3.10;100.00;102497.72;5073634;28;20567;-48
2022/01/20 05:59:29;;;;;;;9.90;1.50;;;;;;;3.06;100.00;102497.78;5074614;28;20491;-55
2022/01/20 06:02:02;;;;;;;17.33;1.95;;;;;;;3.08;100.00;102504.69;5075169;28;20064;-58
2022/01/20 06:04:31;;;;;;;16.23;2.15;;;;;;;3.07;100.00;102515.94;5074761;28;20045;-58
2022/01/20 06:07:00;;;;;;;15.52;1.92;;;;;;;3.13;100.00;102517.63;5076456;28;20146;-46
2022/01/20 06:09:28;;;;;;;17.48;3.45;;;;;;;3.06;100.00;102526.38;5074680;28;20676;-48
2022/01/20 06:11:57;;;;;;;14.27;1.90;;;;;;;3.06;100.00;102527.22;5074746;28;20060;-58
2022/01/20 06:14:28;;;;;;;13.80;2.65;;;;;;;3.08;100.00;102542.81;5077660;28;20048;-58
2022/01/20 06:16:56;;;;;;;12.18;1.63;;;;;;;3.08;100.00;102535.00;5075272;28;20513;-57
2022/01/20 06:19:25;;;;;;;17.17;1.95;;;;;;;3.04;98.82;102528.94;5074468;28;20559;-58
2022/01/20 06:21:53;;;;;;;15.52;2.58;;;;;;;3.06;100.00;102526.38;5081367;28;20406;-58
2022/01/20 06:24:21;;;;;;;12.30;1.63;;;;;;;3.05;100.00;102533.28;5094736;28;20404;-57
2022/01/20 06:26:49;;;;;;;19.55;3.17;;;;;;;3.08;100.00;102529.78;5094606;28;20056;-58
2022/01/20 06:29:18;;;;;;;16.08;1.98;;;;;;;3.07;98.95;102539.34;5094669;28;20032;-48
2022/01/20 06:31:46;;;;;;;17.63;2.63;;;;;;;3.11;98.82;102547.97;5087030;28;20509;-46
2022/01/20 06:34:14;;;;;;;16.15;2.53;;;;;;;3.02;97.53;102548.91;5093065;28;20540;-50
2022/01/20 06:36:42;;;;;;;16.73;2.70;;;;;;;2.99;97.92;102554.97;5094631;28;20052;-46
2022/01/20 06:39:11;;;;;;;12.20;2.20;;;;;;;2.93;95.33;102546.34;5089377;28;20052;-58
2022/01/20 06:41:39;;;;;;;13.10;2.00;;;;;;;2.98;95.46;102555.00;5077110;28;20053;-57
2022/01/20 06:44:07;;;;;;;14.00;1.83;;;;;;;2.99;94.66;102565.38;5087270;28;20040;-58
2022/01/20 06:46:37;;;;;;;9.57;2.65;;;;;;;2.87;92.38;102566.31;5094612;28;20075;-58
2022/01/20 06:49:05;;;;;;;14.48;2.08;;;;;;;2.94;94.14;102569.72;5074491;28;20079;-58
2022/01/20 06:51:33;;;;;;;12.40;1.98;;;;;;;2.93;93.69;102572.34;5073802;28;20057;-58
2022/01/20 06:54:01;;;;;;;8.45;1.65;;;;;;;2.93;94.84;102583.63;5074454;28;20053;-58
2022/01/20 06:56:31;;;;;;;13.73;1.88;;;;;;;2.92;96.35;102592.28;5073741;28;20058;-58
2022/01/20 06:59:09;;;;;;;12.90;2.88;;;;;;;2.91;95.88;102600.09;5073823;28;20041;-58
2022/01/20 07:01:38;;;;;;;13.20;2.55;;;;;;;2.87;94.53;102610.50;5073393;28;20101;-58
2022/01/20 07:04:08;;;;;;;16.13;2.22;;;;;;;2.88;94.94;102634.75;5075173;28;20070;-58
2022/01/20 07:06:37;;;;;;;12.15;1.50;;;;;;;2.59;98.81;102650.44;5073585;28;20567;-57
2022/01/20 07:09:07;;;;;;;9.50;1.27;;;;;;;2.39;100.00;102617.59;5073689;28;20037;-57
2022/01/20 07:11:36;;;;;;;10.00;1.73;;;;;;;2.22;100.00;102614.19;5073658;28;20510;-57
2022/01/20 07:14:04;;;;;;;9.27;2.50;;;;;;;2.20;100.00;102615.03;5076849;28;20040;-56
2022/01/20 07:16:33;;;;;;;13.75;1.70;;;;;;;2.17;100.00;102617.66;5073426;28;20109;-57
2022/01/20 07:19:03;;;;;;;7.60;1.17;;;;;;;2.09;100.00;102623.72;5073165;28;20033;-57
2022/01/20 07:21:31;;;;;;;9.40;1.40;;;;;;;2.11;100.00;102622.84;5073516;28;20538;-56
2022/01/20 07:23:59;;;;;;;8.75;1.40;;;;;;;2.14;100.00;102621.97;5073344;28;20090;-57
2022/01/20 07:26:27;;;;;;;9.32;1.42;;;;;;;2.12;100.00;102621.13;5073059;28;20379;-57
2022/01/20 07:28:55;;;;;;;8.73;1.50;;;;;;;2.01;100.00;102631.50;5073115;28;20140;-57
2022/01/20 07:31:23;;;;;;;12.45;1.42;;;;;;;1.96;100.00;102623.72;5072966;28;20044;-59
2022/01/20 07:33:52;;;;;;;7.18;1.23;;;;;;;1.96;100.00;102628.91;5073135;28;20339;-56
2022/01/20 07:36:21;;;;;;;9.93;1.58;;;;;;;1.93;100.00;102626.31;5073116;28;20052;-56
2022/01/20 07:38:49;;;;;;;9.43;1.80;;;;;;;1.96;100.00;102628.06;5072820;28;20074;-55
2022/01/20 07:41:17;;;;;;;9.50;1.77;;;;;;;1.91;99.67;102634.97;5072954;28;20048;-57
2022/01/20 07:43:45;;;;;;;10.70;1.60;;;;;;;1.87;100.00;102639.31;5073176;28;20068;-45
2022/01/20 07:46:14;;;;;;;11.80;1.73;;;;;;;1.83;100.00;102643.63;5073106;28;20060;-58
2022/01/20 07:48:42;;;;;;;7.38;1.40;;;;;;;1.86;100.00;102645.34;5072512;28;20101;-46
2022/01/20 07:51:11;;;;;;;12.95;2.10;;;;;;;1.83;100.00;102651.41;5072802;28;20495;-57
2022/01/20 07:53:40;;;;;;;8.02;1.33;;;;;;;1.82;100.00;102652.25;5072843;28;20540;-57
2022/01/20 07:56:09;;;;;;;6.80;1.05;;;;;;;1.83;100.00;102659.19;5072580;28;20040;-57
2022/01/20 07:58:37;;;;;;;8.52;1.67;;;;;;;1.89;100.00;102663.50;5072456;28;20151;-59
2022/01/20 08:01:06;;;;;;;10.93;1.42;;;;;;;1.85;100.00;102661.78;5072456;28;20050;-50
2022/01/20 08:03:35;;;;;;;10.00;1.55;;;;;;;1.92;100.00;102673.03;5072459;28;20131;-59
2022/01/20 08:06:04;;;;;;;6.53;1.35;;;;;;;1.96;100.00;102675.63;5072462;28;20052;-58
2022/01/20 08:08:32;;;;;;;10.48;2.13;;;;;;;2.06;100.00;102671.31;5071236;28;20041;-49
2022/01/20 08:11:02;;;;;;;9.55;1.92;;;;;;;2.04;100.00;102678.22;5072422;28;20052;-50
2022/01/20 08:13:30;;;;;;;9.73;1.95;;;;;;;1.98;100.00;102676.50;5071861;28;20048;-59
2022/01/20 08:15:58;;;;;;;11.25;1.63;;;;;;;1.97;99.23;102673.91;5072449;28;20102;-57
2022/01/20 08:18:26;;;;;;;9.05;2.03;;;;;;;1.96;99.94;102674.75;5072263;28;20491;-57
2022/01/20 08:20:54;;;;;;;9.88;1.63;;;;;;;1.94;99.82;102682.56;5072086;28;20422;-48
2022/01/20 08:23:22;;;;;;;11.50;1.60;;;;;;;1.96;99.78;102679.94;5072034;28;20176;-48
2022/01/20 08:25:50;;;;;;;17.98;2.35;;;;;;;2.00;100.00;102689.47;5072066;28;20047;-47
2022/01/20 08:28:22;;;;;;;7.70;1.42;;;;;;;2.02;100.00;102705.94;5070851;28;20044;-49
2022/01/20 08:30:51;;;;;;;4.78;1.38;;;;;;;2.06;100.00;102705.06;5072281;28;20036;-48
2022/01/20 08:33:19;;;;;;;11.85;1.50;;;;;;;2.06;100.00;102705.06;5072380;28;20501;-48
2022/01/20 08:35:48;;;;;;;8.13;1.40;;;;;;;2.06;100.00;102702.47;5074949;28;20105;-48
2022/01/20 08:38:16;;;;;;;9.85;1.48;;;;;;;2.05;100.00;102716.28;5072236;28;20456;-47
2022/01/20 08:40:45;;;;;;;7.63;1.33;;;;;;;2.03;100.00;102702.44;5072059;28;20441;-50
2022/01/20 08:43:14;;;;;;;11.88;2.05;;;;;;;2.08;100.00;102703.31;5072072;28;20044;-47
2022/01/20 08:45:44;;;;;;;8.68;1.45;;;;;;;2.13;100.00;102693.81;5072797;28;20455;-50
2022/01/20 08:48:13;;;;;;;8.43;1.58;;;;;;;2.27;100.00;102705.91;5072052;28;20049;-49
2022/01/20 08:50:42;;;;;;;10.75;1.33;;;;;;;2.34;100.00;102710.22;5071830;28;20148;-48
2022/01/20 08:53:11;;;;;;;13.77;1.48;;;;;;;2.47;100.00;102708.50;5071600;28;20491;-47
2022/01/20 08:55:40;;;;;;;9.07;1.48;;;;;;;2.54;100.00;102721.47;5104526;28;20048;-49
2022/01/20 08:58:08;;;;;;;9.00;1.63;;;;;;;2.53;100.00;102722.31;5073702;28;20048;-45
2022/01/20 09:00:36;;;;;;;8.25;1.45;;;;;;;2.51;100.00;102726.66;5071815;28;20048;-49
2022/01/20 09:03:06;;;;;;;6.97;1.15;;;;;;;2.58;100.00;102726.63;5071867;28;20070;-51
2022/01/20 09:05:34;;;;;;;10.93;2.35;;;;;;;2.62;100.00;102731.84;5072031;28;20492;-47
2022/01/20 09:08:04;;;;;;;8.07;1.55;;;;;;;2.66;100.00;102749.16;5081644;28;20128;-46
2022/01/20 09:10:37;;;;;;;12.15;2.08;;;;;;;2.70;100.00;102763.03;5091900;28;20078;-47
2022/01/20 09:15:54;;;;;;;9.82;1.88;;;;;;;2.64;100.00;102770.81;5071886;28;20518;-58
2022/01/20 09:18:25;;;;;;;11.13;2.05;;;;;;;2.49;99.82;102758.69;5079345;28;20048;-48
2022/01/20 09:20:53;;;;;;;12.00;1.70;;;;;;;2.49;100.00;102762.16;5091900;28;20050;-49
2022/01/20 09:23:21;;;;;;;10.07;1.63;;;;;;;2.27;100.00;102761.31;5092740;28;20048;-47
2022/01/20 09:25:50;;;;;;;13.68;2.78;;;;;;;2.23;100.00;102751.78;5095634;28;20047;-46
2022/01/20 09:28:18;;;;;;;14.70;2.97;;;;;;;2.25;100.00;102755.25;5093469;28;20060;-48
2022/01/20 09:30:49;;;;;;;15.93;2.22;;;;;;;2.27;100.00;102752.66;5075517;28;20479;-51
2022/01/20 09:33:25;;;;;;;11.52;1.73;;;;;;;2.25;100.00;102747.47;5075672;28;20049;-50
2022/01/20 09:35:59;;;;;;;12.10;2.17;;;;;;;2.29;100.00;102748.31;5088006;28;20052;-57
2022/01/20 09:38:28;;;;;;;13.07;1.85;;;;;;;2.33;100.00;102747.44;5084855;28;20529;-49
2022/01/20 09:40:56;;;;;;;8.82;1.58;;;;;;;2.38;100.00;102750.06;5095625;28;20555;-57
2022/01/20 09:43:25;;;;;;;8.50;1.60;;;;;;;2.38;100.00;102744.88;5095653;28;20490;-58
2022/01/20 09:45:58;;;;;;;9.70;1.27;;;;;;;2.38;100.00;102750.06;5095472;28;20052;-57
2022/01/20 09:48:28;;;;;;;9.80;1.70;;;;;;;2.35;100.00;102740.53;5085861;28;20390;-48
2022/01/20 09:50:59;;;;;;;14.48;2.10;;;;;;;2.33;100.00;102750.03;5074837;28;20063;-58
2022/01/20 09:53:28;;;;;;;7.82;1.40;;;;;;;2.31;100.00;102752.63;5075018;28;20044;-48
2022/01/20 09:55:56;;;;;;;9.32;1.33;;;;;;;2.43;100.00;102762.16;5075040;28;20048;-47
2022/01/20 09:58:24;;;;;;;11.10;2.20;;;;;;;2.49;100.00;102769.09;5074865;28;20525;-58
2022/01/20 10:00:52;;;;;;;12.02;1.75;;;;;;;2.60;100.00;102775.13;5073526;28;20074;-58
2022/01/20 10:03:21;;;;;;;11.88;1.88;;;;;;;2.67;99.07;102782.06;5075620;28;20070;-57
2022/01/20 10:05:50;;;;;;;12.02;1.88;;;;;;;3.11;100.00;102781.97;5074915;28;20067;-58
2022/01/20 10:08:22;;;;;;;9.63;1.33;;;;;;;3.47;98.54;102787.94;5087061;28;20052;-45
2022/01/20 10:10:52;;;;;;;9.30;2.10;;;;;;;3.75;97.71;102788.66;5095227;28;20467;-48
2022/01/20 10:13:22;;;;;;;11.07;1.60;;;;;;;4.30;94.72;102781.34;5082688;28;20476;-46
2022/01/20 10:16:02;;;;;;;11.43;1.67;;;;;;;4.07;91.15;102784.97;5075278;28;20049;-48
2022/01/20 10:18:31;;;;;;;10.07;1.60;;;;;;;4.06;91.66;102788.47;5075159;28;20041;-48
2022/01/20 10:21:03;;;;;;;16.23;1.95;;;;;;;4.43;91.39;102790.81;5074873;28;20386;-46
2022/01/20 10:23:36;;;;;;;9.40;1.40;;;;;;;4.20;89.81;102791.84;5074597;28;20050;-58
2022/01/20 10:26:13;;;;;;;9.95;1.75;;;;;;;4.94;90.21;102799.91;5074689;28;20045;-58
2022/01/20 10:28:50;;;;;;;11.93;2.15;;;;;;;5.28;86.48;102796.94;5075706;28;20063;-58
2022/01/20 10:31:31;;;;;;;7.35;1.80;;;;;;;4.84;87.33;102802.59;5086496;28;20098;-58
2022/01/20 10:33:59;;;;;;;9.00;1.73;;;;;;;4.57;89.54;102795.91;5080992;28;20029;-46
2022/01/20 10:36:27;;;;;;;12.75;2.00;;;;;;;4.36;90.47;102805.63;5074123;28;20071;-58
2022/01/20 10:38:59;;;;;;;8.88;1.88;;;;;;;4.28;90.44;102814.34;5074446;28;20049;-58
2022/01/20 10:41:29;;;;;;;11.07;2.17;;;;;;;4.01;91.30;102818.91;5074433;28;20494;-59
2022/01/20 10:44:14;;;;;;;9.52;2.00;;;;;;;4.03;92.01;102820.59;5083602;28;20147;-58
2022/01/20 10:46:47;;;;;;;11.48;2.08;;;;;;;4.07;91.46;102827.50;5074931;28;20036;-46
2022/01/20 10:49:16;;;;;;;10.48;2.08;;;;;;;4.01;92.87;102824.94;5074015;28;20048;-47
2022/01/20 10:51:54;;;;;;;11.77;2.45;;;;;;;3.95;93.02;102829.31;5074316;28;20041;-57
2022/01/20 10:54:23;;;;;;;15.07;2.53;;;;;;;4.01;93.53;102817.13;5074162;28;20056;-57
2022/01/20 10:56:53;;;;;;;13.75;1.95;;;;;;;4.00;92.06;102820.63;5074138;28;20129;-45
2022/01/20 10:59:23;;;;;;;12.75;2.42;;;;;;;4.08;92.06;102810.16;5074058;28;20060;-57
2022/01/20 11:02:03;;;;;;;16.88;2.63;;;;;;;4.19;90.13;102810.94;5074152;28;20055;-57
2022/01/20 11:04:31;;;;;;;16.67;1.90;;;;;;;4.15;90.73;102806.63;5073874;28;20507;-57
2022/01/20 11:07:03;;;;;;;14.18;2.20;;;;;;;4.17;91.50;102796.19;5073513;28;20059;-43
2022/01/20 11:09:41;;;;;;;13.35;2.35;;;;;;;4.15;89.48;102792.75;5072256;28;20086;-44
2022/01/20 11:12:11;;;;;;;12.60;1.95;;;;;;;4.23;88.77;102790.97;5072398;28;20048;-47
2022/01/20 11:14:40;;;;;;;11.27;1.63;;;;;;;4.28;89.04;102791.78;5074178;28;20048;-57
2022/01/20 11:17:08;;;;;;;15.75;1.95;;;;;;;4.45;89.50;102790.78;5073773;28;20040;-58
2022/01/20 11:19:41;;;;;;;14.10;2.78;;;;;;;4.46;89.77;102784.69;5073757;28;20127;-58
2022/01/20 11:22:11;;;;;;;14.55;1.85;;;;;;;4.38;90.21;102777.81;5073745;28;20501;-57
2022/01/20 11:24:43;;;;;;;9.75;1.65;;;;;;;4.43;89.86;102777.78;5073608;28;20052;-57
2022/01/20 11:27:13;;;;;;;14.88;2.40;;;;;;;4.18;86.50;102801.38;5073569;28;20128;-57
2022/01/20 11:29:45;;;;;;;11.73;1.40;;;;;;;4.10;88.08;102799.72;5073892;28;20044;-57
2022/01/20 11:32:22;;;;;;;11.35;1.67;;;;;;;3.76;93.25;102790.38;5073521;28;20041;-58
2022/01/20 11:34:59;;;;;;;13.27;1.85;;;;;;;3.73;95.21;102793.00;5073382;28;20494;-58
2022/01/20 11:37:31;;;;;;;8.35;1.30;;;;;;;3.72;95.41;102789.53;5071904;28;20053;-45
2022/01/20 11:40:12;;;;;;;10.93;1.60;;;;;;;3.82;96.52;102797.31;5073491;28;20402;-58
2022/01/20 11:42:41;;;;;;;13.18;2.38;;;;;;;3.89;97.42;102793.78;5073087;28;20059;-57
2022/01/20 11:45:26;;;;;;;10.07;1.30;;;;;;;4.02;93.08;102791.97;5073242;28;20048;-58
2022/01/20 11:47:54;;;;;;;12.77;1.73;;;;;;;4.19;92.75;102794.47;5072310;28;20509;-58
2022/01/20 11:50:24;;;;;;;10.60;1.40;;;;;;;4.24;91.42;102782.28;5072949;28;20110;-57
2022/01/20 11:52:52;;;;;;;14.63;1.73;;;;;;;4.22;92.65;102795.28;5072832;28;20052;-58
2022/01/20 11:55:30;;;;;;;9.65;2.05;;;;;;;4.14;92.94;102807.50;5072698;28;20499;-58
2022/01/20 11:58:09;;;;;;;11.88;1.75;;;;;;;4.04;92.07;102829.28;5072906;28;20064;-58
2022/01/20 12:00:37;;;;;;;3.78;0.80;;;;;;;2.85;95.96;102843.56;5072997;28;20052;-58
2022/01/20 12:03:11;;;;;;;6.80;1.30;;;;;;;2.56;100.00;102847.88;5072965;28;20056;-56
2022/01/20 12:05:39;;;;;;;7.65;1.00;;;;;;;2.28;100.00;102845.28;5072843;28;20498;-54
2022/01/20 12:08:11;;;;;;;5.18;0.98;;;;;;;2.14;100.00;102811.47;5072901;28;20094;-55
2022/01/20 12:10:43;;;;;;;7.03;1.30;;;;;;;2.24;100.00;102814.97;5072849;28;20045;-57
2022/01/20 12:13:13;;;;;;;8.18;1.00;;;;;;;2.33;100.00;102800.28;5072892;28;20048;-55
2022/01/20 12:15:49;;;;;;;8.32;0.88;;;;;;;2.36;100.00;102799.41;5072758;28;20101;-57
2022/01/20 12:18:17;;;;;;;5.53;0.95;;;;;;;2.37;100.00;102798.53;5072776;28;20040;-57
2022/01/20 12:20:46;;;;;;;6.18;0.90;;;;;;;2.41;100.00;102796.78;5072631;28;20517;-56
2022/01/20 12:23:14;;;;;;;5.15;1.20;;;;;;;2.44;100.00;102787.28;5072523;28;20048;-57